Latest Weather Observations for Maatsuyker Island

IDT60801

Issued at 1:05 am EST Thursday 24 April 2014 (issued every 30 minutes, with the page automatically refreshed every 10 minutes)

About weather observations | Map of weather stations | Latest weather observations for TAS | Other Formats
Station Details ID: 094041 Name: MAATSUYKER ISLAND LIGHTHOUSE Lat: -43.66 Lon: 146.27 Height: 146.5 m
Data from the previous 72 hours. | See also: Recent months at Maatsuyker Island
Date/Time
EST
Temp
°C
App
Temp
°C
Dew
Point
Rel
Hum
%
Delta-T
°C
Wind Press
QNH
hPa
Press
MSL
hPa
Rain
since 9 am
mm
Dir
 
Spd
km/h
Gust
km/h
Spd
kts
Gust
kts
24/01:00am 12.3 4.2 10.0 86 1.2 N 43 61 23 33 997.8 - 0.4
24/12:39am 12.1 3.8 10.0 87 1.1 N 44 63 24 34 998.2 - 0.4
24/12:30am 12.2 3.5 9.9 86 1.2 NNW 46 63 25 34 998.2 - 0.4
24/12:26am 12.1 3.5 10.2 88 1.0 NNW 46 65 25 35 998.6 - 0.4
24/12:00am 12.3 3.6 10.0 86 1.2 NNW 46 63 25 34 999.1 999.1 0.2
 
Date/Time
EST
Temp
°C
App
Temp
°C
Dew
Point
Rel
Hum
%
Delta-T
°C
Wind Press
QNH
hPa
Press
MSL
hPa
Rain
since 9 am
mm
Dir
 
Spd
km/h
Gust
km/h
Spd
kts
Gust
kts
23/11:31pm 12.2 3.1 9.7 85 1.3 NNW 48 67 26 36 999.6 - 0.2
23/11:30pm 12.2 2.7 9.9 86 1.2 NNW 50 67 27 36 999.4 - 0.2
23/11:04pm 12.3 2.3 9.4 82 1.5 NNW 52 70 28 38 1000.2 - 0.2
23/11:00pm 12.4 2.0 9.3 81 1.6 NNW 54 70 29 38 1000.2 - 0.2
23/10:30pm 13.2 3.7 8.2 71 2.5 NNW 48 70 26 38 1000.6 - 0.0
23/10:23pm 13.2 4.4 8.2 71 2.5 NNW 44 63 24 34 1001.0 - 0.0
23/10:00pm 13.2 4.4 8.0 71 2.6 NNW 44 59 24 32 1001.4 - 0.0
23/09:35pm 13.1 5.3 8.1 71 2.5 NNW 39 61 21 33 1002.3 - 0.0
23/09:30pm 13.2 5.0 8.2 71 2.5 NNW 41 56 22 30 1002.6 - 0.0
23/09:09pm 13.1 5.0 7.2 67 2.9 NNW 39 57 21 31 1002.9 - 0.0
23/09:00pm 13.1 4.8 7.7 70 2.7 NNW 41 57 22 31 1003.0 1002.9 0.0
23/08:30pm 13.1 5.9 7.7 70 2.7 NNW 35 54 19 29 1003.5 - 0.0
23/08:00pm 13.1 5.5 7.4 68 2.8 NNW 37 54 20 29 1003.9 - 0.0
23/07:30pm 12.9 6.2 7.2 68 2.8 NNW 32 46 17 25 1004.6 - 0.0
23/07:00pm 13.2 5.9 7.1 66 3.0 NNW 35 48 19 26 1004.8 - 0.0
23/06:30pm 13.1 5.4 7.2 67 2.9 NNW 37 54 20 29 1005.1 - 0.0
23/06:00pm 13.1 4.7 7.4 68 2.8 NNW 41 56 22 30 1005.2 1005.2 0.0
23/05:37pm 13.0 4.8 8.0 71 2.5 NNW 41 59 22 32 1005.3 - 0.0
23/05:30pm 13.0 5.9 8.2 72 2.4 NNW 35 48 19 26 1005.6 - 0.0
23/05:00pm 13.0 5.9 8.2 72 2.4 NNW 35 46 19 25 1005.8 - 0.0
23/04:30pm 13.3 5.8 7.9 70 2.7 NNW 37 56 20 30 1006.2 - 0.0
23/04:03pm 12.8 6.1 8.0 72 2.4 NNW 33 52 18 28 1006.7 - 0.0
23/04:00pm 12.8 6.1 8.2 73 2.3 NNW 33 50 18 27 1006.6 - 0.0
23/03:30pm 13.3 6.6 8.3 72 2.5 NNW 33 46 18 25 1007.0 - 0.0
23/03:00pm 13.8 9.1 7.6 66 3.1 NNW 22 44 12 24 1007.2 1007.2 0.0
23/02:42pm 13.5 5.7 6.7 63 3.3 NNW 37 56 20 30 1007.1 - 0.0
23/02:30pm 13.7 6.8 7.2 65 3.2 NNW 33 46 18 25 1007.4 - 0.0
23/02:00pm 13.6 6.7 7.3 65 3.1 NNW 33 48 18 26 1007.8 - 0.0
23/01:30pm 13.5 6.2 7.2 65 3.1 NNW 35 46 19 25 1008.3 - 0.0
23/01:00pm 13.2 4.6 6.6 64 3.2 NNW 41 52 22 28 1008.5 - 0.0
23/12:30pm 13.0 6.1 7.3 68 2.8 NNW 33 43 18 23 1009.3 - 0.0
23/12:13pm 13.1 5.7 6.7 65 3.1 NNW 35 54 19 29 1009.4 - 0.0
23/12:00pm 12.9 5.9 6.7 66 3.0 NNW 33 48 18 26 1009.5 1009.5 0.0
23/11:30am 12.5 5.5 6.7 68 2.8 NNW 33 46 18 25 1010.0 - 0.0
23/11:00am 12.4 5.0 6.6 68 2.8 NNW 35 48 19 26 1010.3 - 0.0
23/10:30am 12.3 4.9 6.7 68 2.7 NNW 35 44 19 24 1010.6 - 0.0
23/10:00am 12.0 5.1 7.3 73 2.3 NNW 33 46 18 25 1011.0 - 0.0
23/09:30am 11.4 4.4 7.0 74 2.1 NNW 33 41 18 22 1011.2 - 0.0
23/09:00am 11.0 6.8 7.3 78 1.8 NNW 19 41 10 22 1011.5 1011.5 0.4
23/08:30am 10.6 3.8 7.1 79 1.7 NNW 32 41 17 22 1011.8 - 0.4
23/08:00am 10.8 4.4 7.0 77 1.8 NNW 30 41 16 22 1011.9 - 0.4
23/07:30am 10.6 3.5 6.6 76 1.9 NNW 33 43 18 23 1011.7 - 0.4
23/07:00am 10.8 3.8 6.1 73 2.2 NNW 32 43 17 23 1011.6 - 0.4
23/06:30am 10.7 3.8 6.5 75 2.0 NNW 32 39 17 21 1011.8 - 0.4
23/06:00am 10.8 6.5 6.8 76 1.9 NNW 19 35 10 19 1011.9 1011.9 0.4
23/05:30am 10.7 4.5 6.2 74 2.1 NNW 28 37 15 20 1012.0 - 0.4
23/05:00am 11.5 2.5 4.5 62 3.2 NNW 41 50 22 27 1011.9 - 0.4
23/04:30am 11.5 2.5 4.5 62 3.2 NNW 41 48 22 26 1011.8 - 0.4
23/04:00am 11.4 0.2 4.1 61 3.3 NW 52 59 28 32 1011.6 - 0.4
23/03:30am 11.3 -0.2 4.2 61 3.2 NW 54 63 29 34 1011.5 - 0.4
23/03:00am 11.1 -1.4 4.0 61 3.2 NW 59 67 32 36 1011.6 1011.6 0.4
23/02:30am 10.9 -1.2 4.3 64 3.0 NW 57 67 31 36 1011.7 - 0.4
23/02:00am 11.0 -1.9 4.1 62 3.1 NW 61 72 33 39 1011.5 - 0.4
23/01:30am 11.3 -1.8 5.0 65 2.9 NW 63 72 34 39 1011.4 - 0.4
23/01:00am 11.4 -0.4 5.6 67 2.7 NW 57 67 31 36 1011.4 - 0.4
23/12:30am 11.3 -2.6 4.5 63 3.1 NW 67 80 36 43 1011.3 - 0.4
23/12:00am 11.5 -2.2 5.5 66 2.8 NW 67 74 36 40 1011.1 1011.1 0.4
 
Date/Time
EST
Temp
°C
App
Temp
°C
Dew
Point
Rel
Hum
%
Delta-T
°C
Wind Press
QNH
hPa
Press
MSL
hPa
Rain
since 9 am
mm
Dir
 
Spd
km/h
Gust
km/h
Spd
kts
Gust
kts
22/11:30pm 11.5 -2.1 6.2 70 2.5 NW 67 74 36 40 1010.9 - 0.4
22/11:00pm 11.5 -2.3 7.2 75 2.1 NW 69 83 37 45 1010.6 - 0.4
22/10:30pm 10.5 -1.9 8.0 84 1.2 WNW 63 82 34 44 1011.3 - 0.2
22/10:28pm 11.0 -1.2 7.5 79 1.7 NW 61 82 33 44 1011.1 - 0.2
22/10:00pm 11.7 -0.9 7.2 74 2.2 NW 63 74 34 40 1010.8 - 0.2
22/09:30pm 11.6 -2.0 6.1 69 2.6 NW 67 80 36 43 1010.8 - 0.2
22/09:00pm 11.6 -1.9 6.6 71 2.4 NW 67 78 36 42 1010.4 1010.4 0.2
22/08:30pm 11.3 -1.4 8.5 83 1.4 NW 65 74 35 40 1010.2 - 0.2
22/08:00pm 10.2 -3.8 8.6 90 0.8 NW 72 82 39 44 1009.9 - 0.2
22/07:30pm 11.9 -2.0 7.4 74 2.2 NW 70 82 38 44 1009.4 - 0.2
22/07:00pm 11.8 -1.7 8.4 80 1.7 NW 69 80 37 43 1008.9 - 0.2
22/06:30pm 11.6 -4.2 7.3 75 2.1 NW 80 87 43 47 1008.7 - 0.2
22/06:00pm 12.3 -3.3 6.5 67 2.8 NW 78 87 42 47 1007.7 1007.7 0.2
22/05:30pm 12.3 -3.8 7.6 73 2.3 NW 82 93 44 50 1007.5 - 0.2
22/05:00pm 12.4 -3.5 6.8 68 2.7 NW 80 89 43 48 1006.5 - 0.2
22/04:30pm 12.4 -3.5 8.4 76 2.0 NNW 82 93 44 50 1006.4 - 0.2
22/04:07pm 11.5 -3.0 9.7 89 0.9 NNW 76 95 41 51 1006.6 - 0.2
22/04:00pm 11.5 -3.5 9.1 85 1.2 NNW 78 95 42 51 1005.6 - 0.0
22/03:55pm 12.4 -1.4 8.0 74 2.2 NNW 70 89 38 48 1006.3 - 0.0
22/03:30pm 13.3 0.0 7.4 67 2.9 NNW 67 83 36 45 1006.5 - 0.0
22/03:00pm 12.9 2.4 7.2 68 2.8 NW 52 83 28 45 1006.1 1006.1 0.0
22/02:30pm 12.7 -1.2 7.4 70 2.6 NNW 70 87 38 47 1006.0 - 0.0
22/02:00pm 12.7 -2.0 7.4 70 2.6 NW 74 87 40 47 1005.7 - 0.0
22/01:30pm 12.8 -0.4 7.8 71 2.5 NW 67 80 36 43 1006.1 - 0.0
22/01:00pm 12.4 -2.1 6.4 67 2.9 NW 72 83 39 45 1006.2 - 0.0
22/12:30pm 12.6 -2.2 6.8 68 2.8 NW 74 82 40 44 1005.9 - 0.0
22/12:00pm 12.5 -1.4 6.7 68 2.8 NW 69 80 37 43 1006.0 1006.0 0.0
22/11:30am 12.4 -2.0 6.8 68 2.7 NW 72 78 39 42 1006.0 - 0.0
22/11:00am 12.1 -2.0 6.7 69 2.6 NW 70 82 38 44 1006.0 - 0.0
22/10:30am 11.9 -2.0 7.2 73 2.3 NW 70 82 38 44 1005.6 - 0.0
22/10:00am 12.1 -1.9 8.7 80 1.7 NW 72 80 39 43 1005.2 - 0.0
22/09:30am 11.9 -2.5 9.8 87 1.1 NW 76 85 41 46 1004.6 - 0.0
22/09:00am 12.3 2.9 11.4 94 0.5 NW 52 87 28 47 1003.7 1003.7 11.2
22/08:30am 13.2 0.3 11.3 88 1.0 NNW 70 80 38 43 1002.9 - 11.2
22/08:00am 13.4 0.5 11.2 86 1.2 NW 70 80 38 43 1002.9 - 11.2
22/07:30am 13.3 0.3 10.9 85 1.3 NW 70 76 38 41 1002.5 - 11.2
22/07:00am 13.3 1.3 10.9 85 1.3 NW 65 78 35 42 1002.0 - 11.2
22/06:30am 13.4 1.1 11.2 86 1.2 NW 67 78 36 42 1001.9 - 11.2
22/06:00am 13.3 3.8 11.2 87 1.1 NW 52 78 28 42 1001.7 1001.7 11.2
22/05:30am 13.4 1.9 11.5 88 1.0 NNW 63 80 34 43 1001.7 - 11.2
22/05:23am 13.4 2.4 11.9 91 0.8 NNW 61 80 33 43 1001.4 - 11.2
22/05:00am 13.3 3.8 12.4 94 0.5 NNW 54 65 29 35 1001.4 - 11.2
22/04:30am 13.3 3.0 12.8 97 0.3 NW 59 65 32 35 1001.2 - 11.2
22/04:00am 14.0 1.2 12.9 93 0.6 NW 72 82 39 44 1000.5 - 11.2
22/03:30am 14.1 3.3 13.6 97 0.3 NW 63 76 34 41 1000.1 - 11.2
22/03:00am 14.2 1.6 13.5 96 0.4 NW 72 82 39 44 999.8 999.8 11.2
22/02:50am 14.2 1.2 13.5 96 0.4 NW 74 83 40 45 999.4 - 11.2
22/02:48am 13.8 5.2 12.9 94 0.5 NNW 50 78 27 42 999.6 - 11.2
22/02:30am 13.1 5.7 12.4 95 0.4 NNW 43 56 23 30 1000.1 - 11.2
22/02:18am 12.3 6.2 11.6 95 0.4 NNW 35 41 19 22 1000.5 - 11.0
22/02:00am 11.8 9.6 10.9 94 0.5 N 13 20 7 11 1000.9 - 10.4
22/01:30am 11.7 8.3 10.6 93 0.6 N 19 26 10 14 1001.2 - 9.8
22/01:00am 11.1 9.5 10.1 94 0.5 ENE 9 19 5 10 1001.8 - 9.6
22/12:30am 11.0 7.3 9.4 90 0.8 ENE 19 28 10 15 1002.4 - 6.8
22/12:00am 11.0 9.5 8.6 85 1.2 NNW 6 13 3 7 1003.4 1003.4 4.2
 
Date/Time
EST
Temp
°C
App
Temp
°C
Dew
Point
Rel
Hum
%
Delta-T
°C
Wind Press
QNH
hPa
Press
MSL
hPa
Rain
since 9 am
mm
Dir
 
Spd
km/h
Gust
km/h
Spd
kts
Gust
kts
21/11:30pm 11.1 9.3 8.1 82 1.5 N 7 15 4 8 1004.3 - 1.2
21/11:00pm 11.1 9.2 7.6 79 1.7 ENE 7 13 4 7 1005.1 - 0.8
21/10:30pm 11.0 9.0 6.1 72 2.3 WNW 6 11 3 6 1006.0 - 0.4
21/10:00pm 10.8 7.2 6.8 76 1.9 NE 15 19 8 10 1007.0 - 0.2
21/09:30pm 10.9 7.6 6.5 74 2.1 ENE 13 17 7 9 1007.7 - 0.0
21/09:00pm 11.2 8.2 5.9 70 2.5 NNE 11 13 6 7 1008.3 1008.3 0.0
21/08:30pm 11.1 7.2 5.3 67 2.7 NNE 15 19 8 10 1008.7 - 0.0
21/08:00pm 11.1 8.0 5.5 68 2.6 NNE 11 17 6 9 1009.3 - 0.0
21/07:30pm 11.1 7.9 5.0 66 2.8 N 11 17 6 9 1009.7 - 0.0
21/07:00pm 10.9 7.3 4.8 66 2.8 N 13 17 7 9 1010.1 - 0.0
21/06:30pm 10.4 7.0 4.2 65 2.8 N 11 15 6 8 1010.4 - 0.0
21/06:00pm 10.3 7.2 3.5 62 3.0 NE 9 11 5 6 1010.6 1010.6 0.0
21/05:30pm 9.7 6.7 4.1 68 2.5 N 9 11 5 6 1010.7 - 0.0
21/05:00pm 9.9 7.2 3.8 66 2.7 NNE 7 9 4 5 1011.1 - 0.0
21/04:30pm 10.7 8.7 4.3 64 2.9 NE 4 7 2 4 1011.5 - 0.0
21/04:00pm 11.1 9.6 3.2 58 3.5 CALM 0 6 0 3 1012.0 - 0.0
21/03:30pm 11.3 8.7 3.4 58 3.5 ENE 6 11 3 6 1012.5 - 0.0
21/03:00pm 12.0 9.2 3.0 54 4.0 NNE 7 15 4 8 1012.5 1012.5 0.0
21/02:30pm 11.5 8.8 2.9 55 3.8 NNW 6 9 3 5 1013.0 - 0.0
21/02:00pm 11.2 8.5 2.4 54 3.8 NNW 6 7 3 4 1013.7 - 0.0
21/01:30pm 11.3 8.4 2.6 55 3.8 NE 7 11 4 6 1014.1 - 0.0
21/01:00pm 12.1 9.1 2.2 50 4.3 WNW 7 13 4 7 1014.4 - 0.0
21/12:30pm 10.8 7.2 2.8 57 3.5 NNW 11 13 6 7 1015.3 - 0.0
21/12:00pm 10.8 6.8 3.0 58 3.4 N 13 17 7 9 1015.9 1016.0 0.0
21/11:30am 10.7 6.4 3.2 60 3.3 N 15 20 8 11 1016.2 - 0.0
21/11:00am 10.2 5.9 3.4 62 3.0 N 15 20 8 11 1016.6 - 0.0
21/10:30am 9.8 5.6 3.7 66 2.7 N 15 20 8 11 1016.8 - 0.0
21/10:00am 9.6 5.9 4.7 71 2.2 N 13 20 7 11 1017.1 - 0.0
21/09:30am 9.8 6.4 3.9 66 2.6 N 11 17 6 9 1017.2 - 0.0
21/09:00am 9.2 6.7 4.5 72 2.1 NW 7 17 4 9 1017.5 1017.5 3.2
21/08:30am 9.2 5.1 4.2 71 2.2 N 15 24 8 13 1017.5 - 3.2
21/08:00am 8.8 4.8 5.0 77 1.7 N 15 20 8 11 1017.4 - 3.2
21/07:30am 9.0 4.8 4.0 71 2.2 NNW 15 20 8 11 1017.1 - 3.2
21/07:00am 8.7 4.8 3.6 70 2.2 N 13 19 7 10 1017.0 - 3.2
21/06:30am 9.3 4.5 2.5 62 2.9 NNW 17 22 9 12 1016.8 - 3.2
21/06:00am 9.3 5.8 3.3 66 2.6 NNW 11 22 6 12 1016.6 1016.6 3.2
21/05:30am 9.3 4.3 3.8 68 2.4 NNW 19 28 10 15 1016.5 - 3.2
21/05:00am 9.3 2.7 1.9 60 3.1 WNW 26 33 14 18 1016.4 - 3.2
21/04:30am 9.6 2.8 2.9 63 2.9 NW 28 35 15 19 1015.9 - 3.2
21/04:00am 9.2 2.3 2.4 62 2.9 NW 28 39 15 21 1015.6 - 3.2
21/03:30am 9.3 1.3 1.4 58 3.3 WNW 33 41 18 22 1015.6 - 3.2
21/03:00am 9.3 0.5 1.1 56 3.4 NW 37 44 20 24 1015.5 1015.6 3.2
21/02:30am 9.3 0.7 0.4 54 3.6 WNW 35 41 19 22 1015.7 - 3.2
21/02:00am 9.5 -0.5 1.0 55 3.5 WNW 43 50 23 27 1015.4 - 3.2
21/01:30am 9.5 -0.5 0.7 54 3.6 WNW 43 50 23 27 1015.5 - 3.2

Other Formats:

Comma delimited format used in spreadsheet applications
http://www.bom.gov.au/fwo/IDT60801/IDT60801.94962.axf

JavaScript Object Notation format (JSON) in row-major order
http://www.bom.gov.au/fwo/IDT60801/IDT60801.94962.json